createdAt,value
2017-09-26T06:25:14.447Z,40.7
2017-09-26T06:45:19.413Z,34.6
2017-09-26T06:50:19.177Z,37.9
2017-09-26T06:55:18.976Z,38.6
2017-09-26T07:00:18.768Z,36.3
2017-09-26T07:05:18.549Z,35.6
2017-09-26T07:10:18.850Z,38.5
2017-09-26T07:15:18.636Z,35.4
2017-09-26T07:20:19.495Z,37.5
2017-09-26T07:25:19.288Z,34.2
2017-09-26T07:30:19.037Z,35.1
2017-09-26T07:35:18.792Z,35
2017-09-26T07:40:19.008Z,38.6
2017-09-26T07:45:18.790Z,35.5
2017-09-26T07:50:18.539Z,37.2
2017-09-26T09:04:05.961Z,21.7
2017-09-26T09:05:18.781Z,18.9
2017-09-26T09:22:36.893Z,20.9
2017-09-26T09:25:17.929Z,21.6
2017-09-26T09:30:17.064Z,20.2
2017-09-26T09:45:17.730Z,18.9
2017-09-26T10:00:17.653Z,18.3
2017-09-26T10:15:17.591Z,18.4
2017-09-26T10:30:17.477Z,17.3
2017-09-26T10:36:17.835Z,17.3
2017-09-26T10:38:16.919Z,18.2
2017-09-26T10:40:18.048Z,18.3
2017-09-26T10:42:17.215Z,17.4
2017-09-26T10:44:17.300Z,17.8
2017-09-26T10:46:17.465Z,17
2017-09-26T10:48:17.605Z,16.5
2017-09-26T10:50:17.715Z,16.3
2017-09-26T10:52:17.840Z,15.8
2017-09-26T10:54:17.029Z,16.6
2017-09-26T10:56:17.111Z,15.9
2017-09-26T10:58:17.241Z,15.9
2017-09-26T11:00:17.382Z,15.9
2017-09-26T11:02:17.545Z,16.4
2017-09-26T11:04:17.657Z,16
2017-09-26T11:06:16.798Z,16
2017-09-26T11:08:16.931Z,15.3
2017-09-26T11:10:18.098Z,15
2017-09-26T11:12:17.243Z,15.6
2017-09-26T11:14:17.381Z,16.9
2017-09-26T11:16:17.542Z,15.9
2017-09-26T11:18:17.696Z,15
2017-09-26T11:20:17.791Z,15.2
2017-09-26T11:22:16.968Z,13.7
2017-09-26T11:24:17.067Z,14.4
2017-09-26T11:26:17.227Z,14.4
2017-09-26T11:28:17.403Z,14.1
2017-09-26T11:30:17.516Z,15.1
2017-09-26T11:32:17.685Z,14.2
2017-09-26T11:34:17.875Z,14.8
2017-09-26T11:36:17.957Z,15.8
2017-09-26T11:38:17.099Z,15.8
2017-09-26T11:40:18.281Z,16.4
2017-09-26T11:42:17.421Z,15
2017-09-26T11:44:17.566Z,15.1
2017-09-26T11:46:16.737Z,15.7
2017-09-26T11:48:17.894Z,14.1
2017-09-26T11:50:17.032Z,15
2017-09-26T11:52:17.239Z,14.6
2017-09-26T11:54:17.348Z,14.8
2017-09-26T11:56:17.538Z,12.8
2017-09-26T11:58:17.697Z,13.5
2017-09-26T12:00:17.848Z,13
2017-09-26T12:02:17.030Z,12.7
2017-09-26T12:08:17.615Z,13.6
2017-09-26T12:10:17.789Z,13.1
2017-09-26T12:12:17.026Z,13.5
2017-09-26T12:14:17.180Z,13.7
2017-09-26T12:16:17.370Z,13.6
2017-09-26T12:18:17.602Z,14.1
2017-09-26T12:20:17.766Z,14.4
2017-09-26T12:22:16.964Z,13.7
2017-09-26T12:24:17.184Z,15.1
2017-09-26T12:26:17.319Z,14.6
2017-09-26T12:28:17.496Z,14.3
2017-09-26T12:30:17.693Z,13.8
2017-09-26T12:32:17.872Z,14.6
2017-09-26T12:34:17.056Z,14.2
2017-09-26T12:36:17.249Z,14.1
2017-09-26T12:38:17.422Z,13.2
2017-09-26T12:40:17.658Z,13.4
2017-09-26T12:42:17.808Z,14.3
2017-09-26T12:44:17.031Z,13.9
2017-09-26T12:46:17.295Z,13.1
2017-09-26T12:48:17.516Z,13.5
2017-09-26T12:50:17.754Z,13.7
2017-09-26T12:52:18.014Z,13.2
2017-09-26T12:54:17.276Z,13.8
2017-09-26T12:56:17.537Z,13.5
2017-09-26T12:58:17.834Z,14.1
2017-09-26T13:00:17.060Z,14.1
2017-09-26T13:02:17.332Z,14.5
2017-09-26T13:04:17.591Z,13.6
2017-09-26T13:06:16.838Z,13.9
2017-09-26T13:08:17.088Z,13.7
2017-09-26T13:10:18.355Z,13.6
2017-09-26T13:12:17.547Z,13.3
2017-09-26T13:14:17.794Z,12.8
2017-09-26T13:16:18.044Z,14.4
2017-09-26T13:18:17.303Z,12.5
2017-09-26T13:20:17.555Z,12.9
2017-09-26T13:22:17.848Z,13.2
2017-09-26T13:24:17.080Z,13.1
2017-09-26T13:26:17.393Z,13.1
2017-09-26T13:28:17.625Z,12.6
2017-09-26T13:30:17.934Z,12.7
2017-09-26T13:32:17.225Z,12.6
2017-09-26T13:34:17.481Z,13.1
2017-09-26T13:36:17.785Z,12.6
2017-09-26T13:38:17.101Z,12.8
2017-09-26T13:40:18.378Z,12.7
2017-09-26T13:42:17.725Z,13.1
2017-09-26T13:44:18.070Z,13.4
2017-09-26T13:46:18.362Z,13.3
2017-09-26T13:48:17.659Z,13.4
2017-09-26T13:50:17.999Z,13.5
2017-09-26T13:52:17.317Z,12.9
2017-09-26T13:54:17.644Z,12.6
2017-09-26T13:56:18.007Z,13.7
2017-09-26T13:58:17.355Z,13.9
2017-09-26T14:00:17.685Z,13
2017-09-26T14:02:17.985Z,13
2017-09-26T14:04:17.279Z,14.4
2017-09-26T14:06:17.630Z,13.4
2017-09-26T14:08:17.893Z,13.1
2017-09-26T14:10:17.215Z,13.8
2017-09-26T14:12:17.565Z,14.3
2017-09-26T14:14:17.893Z,14
2017-09-26T14:16:17.168Z,13.6
2017-09-26T14:18:17.511Z,13.6
2017-09-26T14:20:17.802Z,14.6
2017-09-26T14:22:17.112Z,13.7
2017-09-26T14:24:17.451Z,14.9
2017-09-26T14:26:17.710Z,14.1
2017-09-26T14:28:17.990Z,14.1
2017-09-26T14:30:17.319Z,14.6
2017-09-26T14:32:17.566Z,14.2
2017-09-26T14:34:17.849Z,14.4
2017-09-26T14:36:17.127Z,15.3
2017-09-26T14:38:17.399Z,14.6
2017-09-26T14:40:17.654Z,15.2
2017-09-26T14:42:17.881Z,14.4
2017-09-26T14:44:17.120Z,14.1
2017-09-26T14:46:17.404Z,14.4
2017-09-26T14:48:17.621Z,13.9
2017-09-26T14:50:17.828Z,15.1
2017-09-26T14:52:17.106Z,13.8
2017-09-26T14:54:17.334Z,15
2017-09-26T14:56:17.598Z,14.7
2017-09-26T14:58:17.893Z,14.5
2017-09-26T15:00:17.144Z,13.9
2017-09-26T15:02:17.432Z,13.8
2017-09-26T15:04:17.763Z,14.6
2017-09-26T15:08:18.236Z,15.6
2017-09-26T15:10:17.504Z,15.6
2017-09-26T15:12:17.729Z,14.5
2017-09-26T15:14:18.002Z,14.9
2017-09-26T15:16:18.219Z,15.3
2017-09-26T15:18:17.481Z,15
2017-09-26T15:20:17.684Z,14.4
2017-09-26T15:22:17.867Z,13.9
2017-09-26T15:24:17.066Z,14.9
2017-09-26T15:26:17.281Z,14.5
2017-09-26T15:28:17.462Z,15.4
2017-09-26T15:30:17.652Z,15.6
2017-09-26T15:32:17.845Z,14.1
2017-09-26T15:34:17.039Z,16.4
2017-09-26T15:36:17.169Z,14.8
2017-09-26T15:38:17.374Z,17
2017-09-26T15:40:17.514Z,16.1
2017-09-26T15:42:17.684Z,15.1
2017-09-26T15:44:17.894Z,14.9
2017-09-26T15:46:18.016Z,15.6
2017-09-26T15:48:17.174Z,15.4
2017-09-26T15:50:17.321Z,14.9
2017-09-26T15:52:17.450Z,15.5
2017-09-26T15:54:17.604Z,16.2
2017-09-26T15:56:17.786Z,16.4
2017-09-26T15:58:16.900Z,15.8
2017-09-26T16:00:17.029Z,16.4
2017-09-26T16:02:17.194Z,17.2
2017-09-26T16:04:17.301Z,15.7
2017-09-26T16:06:17.483Z,16.3
2017-09-26T16:08:17.607Z,16
2017-09-26T16:10:17.727Z,17
2017-09-26T16:12:17.849Z,17.4
2017-09-26T16:14:16.998Z,16.8
2017-09-26T16:16:18.071Z,16.6
2017-09-26T16:18:17.192Z,17.1
2017-09-26T16:20:17.328Z,17.3
2017-09-26T16:22:17.465Z,16.9
2017-09-26T16:24:17.537Z,16.9
2017-09-26T16:26:17.659Z,16.3
2017-09-26T16:28:17.795Z,16.9
2017-09-26T16:30:16.934Z,17.2
2017-09-26T16:32:17.003Z,17.8
2017-09-26T16:34:17.113Z,17.6
2017-09-26T16:36:17.235Z,17.1
2017-09-26T16:38:17.335Z,17.1
2017-09-26T16:40:17.424Z,17.4
2017-09-26T16:42:17.509Z,16.6
2017-09-26T16:44:17.595Z,18.7
2017-09-26T16:46:16.686Z,16.8
2017-09-26T16:48:17.799Z,16.2
2017-09-26T16:50:16.847Z,17
2017-09-26T16:52:16.930Z,16.4
2017-09-26T16:54:17.059Z,16
2017-09-26T16:56:17.122Z,16.5
2017-09-26T16:58:17.197Z,16.7
2017-09-26T17:00:17.295Z,17.7
2017-09-26T17:02:17.390Z,16.9
2017-09-26T17:04:17.465Z,18
2017-09-26T17:06:17.548Z,18.3
2017-09-26T17:08:17.651Z,18.7
2017-09-26T17:10:17.800Z,19.3
2017-09-26T17:12:16.864Z,17.7
2017-09-26T17:14:16.976Z,18.3
2017-09-26T17:16:18.083Z,18.9
2017-09-26T17:18:17.133Z,19.3
2017-09-26T17:20:17.204Z,20
2017-09-26T17:22:17.301Z,19.4
2017-09-26T17:24:17.363Z,18.7
2017-09-26T17:26:17.450Z,19.6
2017-09-26T17:28:17.571Z,18.8
2017-09-26T17:30:17.626Z,19.3
2017-09-26T17:32:17.709Z,19.8
2017-09-26T17:34:17.801Z,19.7
2017-09-26T17:36:17.877Z,18.8
2017-09-26T17:38:16.948Z,19.1
2017-09-26T17:40:18.060Z,19.3
2017-09-26T17:42:17.119Z,19.1
2017-09-26T17:44:17.195Z,18.9
2017-09-26T17:46:17.305Z,18.8
2017-09-26T17:48:17.348Z,18.8
2017-09-26T17:50:17.441Z,18.6
2017-09-26T17:52:17.493Z,18.8
2017-09-26T17:54:17.567Z,19.8
2017-09-26T17:56:17.681Z,18.2
2017-09-26T17:58:17.720Z,19.1
2017-09-26T18:00:17.786Z,18.1
2017-09-26T18:02:16.892Z,18.5
2017-09-26T18:04:16.905Z,18.7
2017-09-26T18:06:18.002Z,17.9
2017-09-26T18:08:17.092Z,18
2017-09-26T18:10:18.118Z,18
2017-09-26T18:12:17.223Z,18.8
2017-09-26T18:14:17.268Z,18.8
2017-09-26T18:16:18.316Z,17.6
2017-09-26T18:18:17.367Z,18.1
2017-09-26T18:20:17.468Z,18.2
2017-09-26T18:22:17.511Z,18
2017-09-26T18:24:17.603Z,18.4
2017-09-26T18:26:17.627Z,17.6
2017-09-26T18:28:17.728Z,17.7
2017-09-26T18:30:17.785Z,17.4
2017-09-26T18:32:16.844Z,17.9
2017-09-26T18:34:16.881Z,18.2
2017-09-26T18:36:17.945Z,18.2
2017-09-26T18:38:17.014Z,18.3
2017-09-26T18:40:18.087Z,17.7
2017-09-26T18:42:17.117Z,18.4
2017-09-26T18:44:17.209Z,18.7
2017-09-26T18:46:17.283Z,18.4
2017-09-26T18:48:17.292Z,17.6
2017-09-26T18:50:17.363Z,18.3
2017-09-26T18:52:17.443Z,18.9
2017-09-26T18:54:17.453Z,18.5
2017-09-26T18:56:17.529Z,18.9
2017-09-26T18:58:17.595Z,18.6
2017-09-26T19:00:17.609Z,18.4
2017-09-26T19:02:17.653Z,18.5
2017-09-26T19:04:17.741Z,18.3
2017-09-26T19:06:16.758Z,19.6
2017-09-26T19:08:16.798Z,18.1
2017-09-26T19:10:17.823Z,19.4
2017-09-26T19:12:16.874Z,18.6
2017-09-26T19:14:16.913Z,17.2
2017-09-26T19:16:16.994Z,18
2017-09-26T19:18:17.019Z,18.3
2017-09-26T19:20:17.076Z,17.6
2017-09-26T19:22:17.112Z,17.8
2017-09-26T19:24:17.144Z,18.4
2017-09-26T19:26:17.216Z,16.8
2017-09-26T19:28:17.216Z,17.5
2017-09-26T19:30:17.261Z,16.8
2017-09-26T19:32:17.337Z,17.5
2017-09-26T19:34:17.366Z,17.3
2017-09-26T19:36:17.415Z,17.8
2017-09-26T19:38:17.487Z,17.4
2017-09-26T19:40:17.476Z,17.6
2017-09-26T19:42:17.529Z,17.2
2017-09-26T19:44:17.602Z,18.3
2017-09-26T19:46:17.623Z,17.3
2017-09-26T19:48:17.708Z,17.1
2017-09-26T19:50:17.709Z,17.3
2017-09-26T19:52:17.750Z,17.6
2017-09-26T19:54:16.796Z,18.5
2017-09-26T19:56:17.869Z,17.7
2017-09-26T19:58:16.891Z,17.7
2017-09-26T20:00:16.927Z,16.8
2017-09-26T20:02:16.991Z,17.5
2017-09-26T20:04:17.022Z,18.8
2017-09-26T20:06:17.015Z,17.7
2017-09-26T20:08:17.096Z,19.3
2017-09-26T20:10:18.107Z,18.4
2017-09-26T20:12:17.161Z,17.9
2017-09-26T20:14:17.201Z,18.1
2017-09-26T20:16:18.216Z,18.8
2017-09-26T20:18:17.272Z,18.9
2017-09-26T20:20:17.320Z,19.2
2017-09-26T20:22:17.357Z,19.8
2017-09-26T20:24:17.431Z,19.7
2017-09-26T20:26:18.432Z,19.3
2017-09-26T20:28:17.454Z,17.5
2017-09-26T20:30:17.493Z,18.1
2017-09-26T20:32:17.536Z,18.1
2017-09-26T20:34:17.605Z,18.3
2017-09-26T20:36:17.637Z,18.5
2017-09-26T20:38:17.658Z,19.3
2017-09-26T20:40:17.747Z,19.8
2017-09-26T20:42:17.728Z,18.7
2017-09-26T20:44:17.774Z,18.6
2017-09-26T20:46:17.853Z,19.3
2017-09-26T20:48:16.849Z,19.4
2017-09-26T20:50:16.882Z,18.7
2017-09-26T20:52:16.940Z,19.1
2017-09-26T20:54:16.953Z,18.3
2017-09-26T20:56:16.992Z,18.7
2017-09-26T20:58:17.043Z,19.3
2017-09-26T21:00:17.046Z,19.4
2017-09-26T21:02:17.102Z,18
2017-09-26T21:04:17.151Z,19.2
2017-09-26T21:06:17.188Z,19.6
2017-09-26T21:08:17.214Z,21.9
2017-09-26T21:10:18.233Z,19.2
2017-09-26T21:12:17.258Z,19.7
2017-09-26T21:14:17.293Z,18.7
2017-09-26T21:16:17.336Z,19.6
2017-09-26T21:18:17.380Z,20.7
2017-09-26T21:20:17.388Z,19.8
2017-09-26T21:22:17.470Z,20.4
2017-09-26T21:24:17.477Z,19.5
2017-09-26T21:26:17.569Z,21.6
2017-09-26T21:28:17.580Z,20.3
2017-09-26T21:30:17.653Z,20.5
2017-09-26T21:32:17.710Z,20.1
2017-09-26T21:34:17.738Z,20.6
2017-09-26T21:36:17.794Z,19.7
2017-09-26T21:38:16.872Z,20.6
2017-09-26T21:40:17.891Z,21.7
2017-09-26T21:42:16.942Z,22.2
2017-09-26T21:44:17.012Z,20.8
2017-09-26T21:46:17.041Z,22.8
2017-09-26T21:48:17.089Z,21.1
2017-09-26T21:50:17.126Z,22.2
2017-09-26T21:52:17.179Z,21.5
2017-09-26T21:54:17.241Z,20.7
2017-09-26T21:56:17.265Z,21.7
2017-09-26T21:58:17.310Z,21.1
2017-09-26T22:00:17.372Z,20.5
2017-09-26T22:02:17.392Z,20.1
2017-09-26T22:04:17.417Z,21.2
2017-09-26T22:06:17.493Z,21.7
2017-09-26T22:08:17.513Z,20.9
2017-09-26T22:10:17.576Z,20
2017-09-26T22:12:17.651Z,21.4
2017-09-26T22:14:17.675Z,21.8
2017-09-26T22:16:17.696Z,21.6
2017-09-26T22:18:16.781Z,21.5
2017-09-26T22:20:16.807Z,21.9
2017-09-26T22:22:16.851Z,21.6
2017-09-26T22:24:16.925Z,22.9
2017-09-26T22:26:17.918Z,22.7
2017-09-26T22:28:16.982Z,22.6
2017-09-26T22:30:17.023Z,24.2
2017-09-26T22:32:17.057Z,23.8
2017-09-26T22:34:17.126Z,22.9
2017-09-26T22:36:17.176Z,23
2017-09-26T22:38:17.215Z,22.5
2017-09-26T22:40:18.303Z,23.3
2017-09-26T22:42:17.352Z,23.7
2017-09-26T22:44:17.365Z,23.5
2017-09-26T22:46:17.390Z,22.8
2017-09-26T22:48:17.458Z,22.7
2017-09-26T22:50:17.499Z,24.7
2017-09-26T22:52:17.541Z,23.2
2017-09-26T22:54:17.603Z,23.4
2017-09-26T22:56:17.659Z,23.8
2017-09-26T22:58:17.674Z,25.3
2017-09-26T23:00:17.693Z,24.7
2017-09-26T23:02:17.722Z,23.7
2017-09-26T23:04:17.752Z,24.2
2017-09-26T23:06:17.814Z,24.2
2017-09-26T23:08:16.844Z,26.2
2017-09-26T23:10:17.872Z,25.7
2017-09-26T23:12:16.934Z,26
2017-09-26T23:14:16.921Z,26
2017-09-26T23:16:17.948Z,24.6
2017-09-26T23:18:17.000Z,24.6
2017-09-26T23:20:17.025Z,25.8
2017-09-26T23:22:17.023Z,27.1
2017-09-26T23:24:17.069Z,26.7
2017-09-26T23:26:18.050Z,25
2017-09-26T23:28:17.108Z,27.5
2017-09-26T23:30:17.108Z,26
2017-09-26T23:32:17.094Z,26.9
2017-09-26T23:34:17.117Z,26.7
2017-09-26T23:36:17.129Z,27.1
2017-09-26T23:38:17.158Z,28.2
2017-09-26T23:40:18.180Z,27.1
2017-09-26T23:42:17.212Z,27.2
2017-09-26T23:44:17.229Z,26.6
2017-09-26T23:46:17.248Z,28
2017-09-26T23:48:17.267Z,27
2017-09-26T23:50:17.278Z,26.7
2017-09-26T23:52:17.345Z,27.8
2017-09-26T23:54:17.343Z,28
2017-09-26T23:56:18.387Z,26.5
2017-09-26T23:58:17.421Z,26.1
